createdAt,value
2016-11-25T00:00:09.197Z,1001.9
2016-11-25T00:00:29.741Z,1002
2016-11-25T00:00:50.280Z,1001.9
2016-11-25T00:01:10.903Z,1002
2016-11-25T00:01:31.479Z,1001.9
2016-11-25T00:01:52.026Z,1001.9
2016-11-25T00:02:12.564Z,1001.9
2016-11-25T00:02:33.118Z,1001.9
2016-11-25T00:02:53.665Z,1002
2016-11-25T00:03:14.215Z,1002
2016-11-25T00:03:34.759Z,1002
2016-11-25T00:03:55.335Z,1001.9
2016-11-25T00:04:15.883Z,1001.9
2016-11-25T00:04:36.526Z,1001.9
2016-11-25T00:04:57.095Z,1002
2016-11-25T00:05:17.668Z,1001.9
2016-11-25T00:05:38.202Z,1001.9
2016-11-25T00:05:58.759Z,1001.9
2016-11-25T00:06:19.314Z,1001.9
2016-11-25T00:06:39.869Z,1001.9
2016-11-25T00:07:00.413Z,1001.9
2016-11-25T00:07:20.959Z,1001.9
2016-11-25T00:07:41.537Z,1001.9
2016-11-25T00:08:02.072Z,1001.9
2016-11-25T00:08:22.639Z,1001.9
2016-11-25T00:08:43.184Z,1001.9
2016-11-25T00:09:03.730Z,1001.9
2016-11-25T00:09:24.278Z,1001.9
2016-11-25T00:09:44.819Z,1001.9
2016-11-25T00:10:05.398Z,1001.9
2016-11-25T00:10:25.966Z,1001.9
2016-11-25T00:10:46.550Z,1001.8
2016-11-25T00:11:07.081Z,1001.8
2016-11-25T00:11:27.623Z,1001.8
2016-11-25T00:11:48.194Z,1001.9
2016-11-25T00:12:08.753Z,1001.9
2016-11-25T00:12:29.343Z,1001.9
2016-11-25T00:12:49.903Z,1001.9
2016-11-25T00:13:10.457Z,1001.9
2016-11-25T00:13:30.983Z,1001.9
2016-11-25T00:13:51.554Z,1001.9
2016-11-25T00:14:12.179Z,1001.8
2016-11-25T00:14:32.743Z,1001.9
2016-11-25T00:14:53.294Z,1001.9
2016-11-25T00:15:13.853Z,1001.9
2016-11-25T00:15:34.433Z,1001.9
2016-11-25T00:15:55.001Z,1001.9
2016-11-25T00:16:15.570Z,1001.9
2016-11-25T00:16:36.125Z,1001.9
2016-11-25T00:16:56.689Z,1001.9
2016-11-25T00:17:17.256Z,1001.9
2016-11-25T00:17:37.814Z,1001.9
2016-11-25T00:17:58.378Z,1001.9
2016-11-25T00:18:18.964Z,1001.9
2016-11-25T00:18:39.514Z,1001.9
2016-11-25T00:19:00.097Z,1001.9
2016-11-25T00:19:20.659Z,1002
2016-11-25T00:19:41.195Z,1002
2016-11-25T00:20:01.788Z,1002
2016-11-25T00:20:22.330Z,1001.9
2016-11-25T00:20:42.895Z,1002
2016-11-25T00:21:03.451Z,1001.9
2016-11-25T00:21:24.037Z,1002
2016-11-25T00:21:44.578Z,1001.9
2016-11-25T00:22:05.157Z,1001.9
2016-11-25T00:22:25.705Z,1001.9
2016-11-25T00:22:46.258Z,1001.9
2016-11-25T00:23:06.826Z,1001.9
2016-11-25T00:23:27.378Z,1001.9
2016-11-25T00:23:47.924Z,1001.9
2016-11-25T00:24:08.490Z,1001.9
2016-11-25T00:24:29.078Z,1001.9
2016-11-25T00:24:49.619Z,1001.8
2016-11-25T00:25:10.171Z,1001.8
2016-11-25T00:25:30.733Z,1001.8
2016-11-25T00:25:51.283Z,1001.8
2016-11-25T00:26:11.839Z,1001.8
2016-11-25T00:26:32.397Z,1001.8
2016-11-25T00:26:52.946Z,1001.8
2016-11-25T00:27:13.505Z,1001.8
2016-11-25T00:27:34.060Z,1001.9
2016-11-25T00:27:54.606Z,1001.8
2016-11-25T00:28:15.193Z,1001.8
2016-11-25T00:28:35.753Z,1001.9
2016-11-25T00:28:56.312Z,1001.9
2016-11-25T00:29:16.855Z,1001.9
2016-11-25T00:29:37.405Z,1001.9
2016-11-25T00:29:57.957Z,1001.9
2016-11-25T00:30:18.494Z,1001.9
2016-11-25T00:30:39.054Z,1001.9
2016-11-25T00:30:59.627Z,1001.9
2016-11-25T00:31:20.182Z,1001.9
2016-11-25T00:31:40.721Z,1001.9
2016-11-25T00:32:01.279Z,1001.9
2016-11-25T00:32:21.825Z,1001.9
2016-11-25T00:32:42.384Z,1001.9
2016-11-25T00:33:02.970Z,1001.9
2016-11-25T00:33:23.530Z,1001.9
2016-11-25T00:33:44.072Z,1001.9
2016-11-25T00:34:04.622Z,1001.9
2016-11-25T00:34:25.179Z,1001.9
2016-11-25T00:34:45.740Z,1001.9
2016-11-25T00:35:06.303Z,1001.9
2016-11-25T00:35:26.849Z,1001.9
2016-11-25T00:35:47.394Z,1001.9
2016-11-25T00:36:07.981Z,1001.9
2016-11-25T00:36:28.518Z,1001.9
2016-11-25T00:36:49.119Z,1001.9
2016-11-25T00:37:09.707Z,1001.9
2016-11-25T00:37:30.275Z,1001.9
2016-11-25T00:37:50.836Z,1001.9
2016-11-25T00:38:11.431Z,1001.9
2016-11-25T00:38:31.992Z,1001.9
2016-11-25T00:38:52.547Z,1001.9
2016-11-25T00:39:13.103Z,1001.9
2016-11-25T00:39:33.658Z,1001.9
2016-11-25T00:39:54.210Z,1001.9
2016-11-25T00:40:14.746Z,1001.9
2016-11-25T00:40:35.305Z,1002
2016-11-25T00:40:55.869Z,1002
2016-11-25T00:41:16.489Z,1002
2016-11-25T00:41:37.040Z,1002
2016-11-25T00:41:57.584Z,1002
2016-11-25T00:42:18.148Z,1002
2016-11-25T00:42:38.681Z,1002
2016-11-25T00:42:59.240Z,1002
2016-11-25T00:43:19.794Z,1002
2016-11-25T00:43:40.335Z,1002
2016-11-25T00:44:00.909Z,1002
2016-11-25T00:44:21.464Z,1002
2016-11-25T00:44:42.027Z,1002
2016-11-25T00:45:02.588Z,1002.1
2016-11-25T00:45:23.139Z,1002
2016-11-25T00:45:43.697Z,1002
2016-11-25T00:46:04.240Z,1002
2016-11-25T00:46:24.806Z,1002
2016-11-25T00:46:45.347Z,1002
2016-11-25T00:47:05.888Z,1002
2016-11-25T00:47:26.423Z,1002
2016-11-25T00:47:46.972Z,1002
2016-11-25T00:48:07.524Z,1002
2016-11-25T00:48:28.054Z,1002
2016-11-25T00:48:48.622Z,1002
2016-11-25T00:49:09.171Z,1002
2016-11-25T00:49:29.713Z,1002
2016-11-25T00:49:50.262Z,1002
2016-11-25T00:50:10.848Z,1002
2016-11-25T00:50:31.394Z,1002
2016-11-25T00:50:51.987Z,1002
2016-11-25T00:51:12.537Z,1002
2016-11-25T00:51:33.073Z,1002
2016-11-25T00:51:53.620Z,1002.1
2016-11-25T00:52:14.208Z,1002
2016-11-25T00:52:34.756Z,1002
2016-11-25T00:52:55.332Z,1002
2016-11-25T00:53:15.895Z,1002
2016-11-25T00:53:36.483Z,1002
2016-11-25T00:53:57.026Z,1002
2016-11-25T00:54:17.573Z,1002
2016-11-25T00:54:38.125Z,1002
2016-11-25T00:54:58.667Z,1002
2016-11-25T00:55:19.246Z,1002
2016-11-25T00:55:39.795Z,1002
2016-11-25T00:56:00.376Z,1002
2016-11-25T00:56:20.927Z,1002
2016-11-25T00:56:41.493Z,1002
2016-11-25T00:57:02.044Z,1002
2016-11-25T00:57:22.575Z,1002
2016-11-25T00:57:43.130Z,1002
2016-11-25T00:58:03.712Z,1002
2016-11-25T00:58:24.268Z,1002
2016-11-25T00:58:44.884Z,1002
2016-11-25T00:59:05.443Z,1002
2016-11-25T00:59:25.983Z,1002
2016-11-25T00:59:46.542Z,1002
2016-11-25T01:00:07.099Z,1002
2016-11-25T01:00:27.650Z,1002
2016-11-25T01:00:48.187Z,1002
2016-11-25T01:01:08.729Z,1002
2016-11-25T01:01:29.278Z,1002
2016-11-25T01:01:49.846Z,1002
2016-11-25T01:02:10.402Z,1002
2016-11-25T01:02:30.957Z,1002
2016-11-25T01:02:51.543Z,1002
2016-11-25T01:03:12.132Z,1001.9
2016-11-25T01:03:32.686Z,1001.9
2016-11-25T01:03:53.239Z,1001.9
2016-11-25T01:04:13.779Z,1001.9
2016-11-25T01:04:34.342Z,1002
2016-11-25T01:04:54.883Z,1001.9
2016-11-25T01:05:15.439Z,1001.9
2016-11-25T01:05:35.991Z,1001.9
2016-11-25T01:05:56.555Z,1001.9
2016-11-25T01:06:17.126Z,1002
2016-11-25T01:06:37.694Z,1002
2016-11-25T01:06:58.246Z,1002
2016-11-25T01:07:18.790Z,1001.9
2016-11-25T01:07:39.325Z,1001.9
2016-11-25T01:07:59.925Z,1001.9
2016-11-25T01:08:20.482Z,1002
2016-11-25T01:08:41.033Z,1002
2016-11-25T01:09:01.579Z,1002
2016-11-25T01:09:22.133Z,1002
2016-11-25T01:09:42.677Z,1002
2016-11-25T01:10:03.225Z,1002
2016-11-25T01:10:23.782Z,1002
2016-11-25T01:10:44.339Z,1002
2016-11-25T01:11:04.900Z,1002
2016-11-25T01:11:25.440Z,1002
2016-11-25T01:11:45.992Z,1002
2016-11-25T01:12:06.630Z,1002
2016-11-25T01:12:27.184Z,1002
2016-11-25T01:12:47.745Z,1002
2016-11-25T01:13:08.310Z,1002
2016-11-25T01:13:28.868Z,1002
2016-11-25T01:13:49.476Z,1002
2016-11-25T01:14:10.030Z,1002
2016-11-25T01:14:30.574Z,1002
2016-11-25T01:14:51.111Z,1002
2016-11-25T01:15:11.660Z,1002
2016-11-25T01:15:32.219Z,1002
2016-11-25T01:15:52.755Z,1002
2016-11-25T01:16:13.329Z,1002
2016-11-25T01:16:33.920Z,1002
2016-11-25T01:16:54.461Z,1002
2016-11-25T01:17:15.042Z,1002
2016-11-25T01:17:35.587Z,1002
2016-11-25T01:17:56.140Z,1002
2016-11-25T01:18:16.689Z,1002
2016-11-25T01:18:37.294Z,1002
2016-11-25T01:18:57.849Z,1002
2016-11-25T01:19:18.848Z,1002
2016-11-25T01:19:39.464Z,1002.1
2016-11-25T01:20:00.020Z,1002.1
2016-11-25T01:20:20.599Z,1002.1
2016-11-25T01:20:41.150Z,1002.1
2016-11-25T01:21:01.711Z,1002.1
2016-11-25T01:21:22.271Z,1002.1
2016-11-25T01:21:42.831Z,1002.1
2016-11-25T01:22:03.425Z,1002.1
2016-11-25T01:22:23.983Z,1002.1
2016-11-25T01:22:44.533Z,1002.1
2016-11-25T01:23:05.102Z,1002
2016-11-25T01:23:25.666Z,1002.1
2016-11-25T01:23:46.223Z,1002.1
2016-11-25T01:24:06.790Z,1002.1
2016-11-25T01:24:27.334Z,1002.1
2016-11-25T01:24:47.868Z,1002.1
2016-11-25T01:25:08.406Z,1002.1
2016-11-25T01:25:28.945Z,1002.1
2016-11-25T01:25:49.531Z,1002
2016-11-25T01:26:10.089Z,1002
2016-11-25T01:26:30.628Z,1002.1
2016-11-25T01:26:51.178Z,1002.1
2016-11-25T01:27:11.802Z,1002.1
2016-11-25T01:27:32.355Z,1002
2016-11-25T01:27:52.914Z,1002
2016-11-25T01:28:13.456Z,1002
2016-11-25T01:28:34.046Z,1002
2016-11-25T01:28:54.572Z,1002
2016-11-25T01:29:15.104Z,1002
2016-11-25T01:29:35.660Z,1002
2016-11-25T01:29:56.210Z,1002
2016-11-25T01:30:16.760Z,1002
2016-11-25T01:30:37.318Z,1002
2016-11-25T01:30:57.860Z,1002
2016-11-25T01:31:18.438Z,1002
2016-11-25T01:31:38.988Z,1002
2016-11-25T01:31:59.600Z,1002
2016-11-25T01:32:20.153Z,1002
2016-11-25T01:32:40.697Z,1001.9
2016-11-25T01:33:01.262Z,1001.9
2016-11-25T01:33:21.839Z,1002
2016-11-25T01:33:42.392Z,1001.9
2016-11-25T01:34:02.959Z,1001.9
2016-11-25T01:34:23.507Z,1001.9
2016-11-25T01:34:44.048Z,1001.9
2016-11-25T01:35:04.612Z,1002
2016-11-25T01:35:25.220Z,1002
2016-11-25T01:35:45.766Z,1002
2016-11-25T01:36:06.317Z,1002
2016-11-25T01:36:26.890Z,1002
2016-11-25T01:36:47.435Z,1002
2016-11-25T01:37:07.953Z,1002
2016-11-25T01:37:28.525Z,1002
2016-11-25T01:37:49.092Z,1002
2016-11-25T01:38:09.633Z,1002
2016-11-25T01:38:30.256Z,1002
2016-11-25T01:38:50.811Z,1002
2016-11-25T01:39:11.353Z,1002
2016-11-25T01:39:31.884Z,1002
2016-11-25T01:39:52.436Z,1002
2016-11-25T01:40:13.029Z,1002
2016-11-25T01:40:33.574Z,1002
2016-11-25T01:40:54.111Z,1002
2016-11-25T01:41:14.668Z,1002
2016-11-25T01:41:35.230Z,1002
2016-11-25T01:41:55.832Z,1002
2016-11-25T01:42:16.403Z,1002.1
2016-11-25T01:42:36.945Z,1002
2016-11-25T01:42:57.510Z,1002
2016-11-25T01:43:18.071Z,1002
2016-11-25T01:43:38.617Z,1002
2016-11-25T01:43:59.203Z,1002.1
2016-11-25T01:44:19.745Z,1002.1
2016-11-25T01:44:40.291Z,1002
2016-11-25T01:45:00.848Z,1002
2016-11-25T01:45:21.446Z,1002
2016-11-25T01:45:41.990Z,1002
2016-11-25T01:46:02.548Z,1002.1
2016-11-25T01:46:23.115Z,1002.1
2016-11-25T01:46:43.683Z,1002
2016-11-25T01:47:04.248Z,1002
2016-11-25T01:47:24.807Z,1002
2016-11-25T01:47:45.338Z,1002
2016-11-25T01:48:05.883Z,1002
2016-11-25T01:48:26.480Z,1002
2016-11-25T01:48:47.039Z,1002
2016-11-25T01:49:07.593Z,1002
2016-11-25T01:49:28.142Z,1002
2016-11-25T01:49:48.679Z,1002
2016-11-25T01:50:09.225Z,1002
2016-11-25T01:50:29.792Z,1002
2016-11-25T01:50:50.336Z,1001.9
2016-11-25T01:51:10.952Z,1001.9
2016-11-25T01:51:31.507Z,1001.9
2016-11-25T01:51:52.069Z,1001.9
2016-11-25T01:52:12.615Z,1001.9
2016-11-25T01:52:33.158Z,1001.9
2016-11-25T01:52:53.736Z,1001.9
2016-11-25T01:53:14.269Z,1001.9
2016-11-25T01:53:34.884Z,1001.9
2016-11-25T01:53:55.423Z,1001.9
2016-11-25T01:54:15.968Z,1001.9
2016-11-25T01:54:36.541Z,1001.9
2016-11-25T01:54:57.077Z,1001.9
2016-11-25T01:55:17.634Z,1001.9
2016-11-25T01:55:38.167Z,1001.9
2016-11-25T01:55:58.734Z,1001.9
2016-11-25T01:56:19.280Z,1001.8
2016-11-25T01:56:39.828Z,1001.8
2016-11-25T01:57:00.384Z,1001.8
2016-11-25T01:57:20.944Z,1001.8
2016-11-25T01:57:41.522Z,1001.8
2016-11-25T01:58:02.090Z,1001.8
2016-11-25T01:58:22.672Z,1001.8
2016-11-25T01:58:43.227Z,1001.8
2016-11-25T01:59:03.770Z,1001.8
2016-11-25T01:59:24.351Z,1001.8
2016-11-25T01:59:44.903Z,1001.8
2016-11-25T02:00:05.425Z,1001.8
2016-11-25T02:00:25.950Z,1001.8
2016-11-25T02:00:46.499Z,1001.8
2016-11-25T02:01:07.045Z,1001.8
2016-11-25T02:01:27.628Z,1001.8
2016-11-25T02:01:48.164Z,1001.8
2016-11-25T02:02:08.717Z,1001.8
2016-11-25T02:02:29.252Z,1001.8
2016-11-25T02:02:49.805Z,1001.8
2016-11-25T02:03:10.378Z,1001.8
2016-11-25T02:03:30.971Z,1001.9
2016-11-25T02:03:51.522Z,1001.8
2016-11-25T02:04:12.087Z,1001.8
2016-11-25T02:04:32.667Z,1001.8
2016-11-25T02:04:53.226Z,1001.7
2016-11-25T02:05:13.793Z,1001.8
2016-11-25T02:05:34.363Z,1001.7
2016-11-25T02:05:54.902Z,1001.7
2016-11-25T02:06:15.481Z,1001.8
2016-11-25T02:06:36.037Z,1001.7
2016-11-25T02:06:56.583Z,1001.8
2016-11-25T02:07:17.166Z,1001.7
2016-11-25T02:07:37.735Z,1001.7
2016-11-25T02:07:58.288Z,1001.7
2016-11-25T02:08:18.839Z,1001.7
2016-11-25T02:08:39.382Z,1001.7
2016-11-25T02:08:59.917Z,1001.7
2016-11-25T02:09:20.478Z,1001.6
2016-11-25T02:09:41.029Z,1001.7
2016-11-25T02:10:01.605Z,1001.6
2016-11-25T02:10:22.150Z,1001.6
2016-11-25T02:10:42.716Z,1001.6
2016-11-25T02:11:03.325Z,1001.6
2016-11-25T02:11:23.863Z,1001.6
2016-11-25T02:11:44.418Z,1001.6
2016-11-25T02:12:04.962Z,1001.6
2016-11-25T02:12:25.528Z,1001.6
2016-11-25T02:12:46.104Z,1001.6
2016-11-25T02:13:06.658Z,1001.6
2016-11-25T02:13:27.194Z,1001.6
2016-11-25T02:13:47.738Z,1001.6
2016-11-25T02:14:08.266Z,1001.6
2016-11-25T02:14:28.846Z,1001.6
2016-11-25T02:14:49.392Z,1001.6
2016-11-25T02:15:10.002Z,1001.6
2016-11-25T02:15:30.551Z,1001.6
2016-11-25T02:15:51.091Z,1001.6
2016-11-25T02:16:11.627Z,1001.6
2016-11-25T02:16:32.195Z,1001.6
2016-11-25T02:16:52.785Z,1001.6
2016-11-25T02:17:13.328Z,1001.6
2016-11-25T02:17:33.901Z,1001.6
2016-11-25T02:17:54.452Z,1001.6
2016-11-25T02:18:15.001Z,1001.6
2016-11-25T02:18:35.556Z,1001.6
2016-11-25T02:18:56.115Z,1001.6
2016-11-25T02:19:16.678Z,1001.5
2016-11-25T02:19:37.216Z,1001.6
2016-11-25T02:19:57.796Z,1001.5
2016-11-25T02:20:18.353Z,1001.6
2016-11-25T02:20:38.896Z,1001.6
2016-11-25T02:20:59.470Z,1001.6
2016-11-25T02:21:20.005Z,1001.5
2016-11-25T02:21:40.588Z,1001.6
2016-11-25T02:22:01.159Z,1001.5
2016-11-25T02:22:21.707Z,1001.5
2016-11-25T02:22:42.272Z,1001.5
2016-11-25T02:23:02.829Z,1001.6
2016-11-25T02:23:23.376Z,1001.5
2016-11-25T02:23:43.933Z,1001.6
2016-11-25T02:24:04.519Z,1001.5
2016-11-25T02:24:25.064Z,1001.6
2016-11-25T02:24:45.609Z,1001.6
2016-11-25T02:25:06.153Z,1001.5
2016-11-25T02:25:26.703Z,1001.5
2016-11-25T02:25:47.268Z,1001.6
2016-11-25T02:26:07.820Z,1001.6
2016-11-25T02:26:28.365Z,1001.5
2016-11-25T02:26:48.966Z,1001.5
2016-11-25T02:27:09.524Z,1001.6
2016-11-25T02:27:30.081Z,1001.5
2016-11-25T02:27:50.636Z,1001.5
2016-11-25T02:28:11.177Z,1001.5
2016-11-25T02:28:31.742Z,1001.5
2016-11-25T02:28:52.295Z,1001.5
2016-11-25T02:29:12.852Z,1001.5
2016-11-25T02:29:33.419Z,1001.5
2016-11-25T02:29:53.973Z,1001.5
2016-11-25T02:30:14.517Z,1001.5
2016-11-25T02:30:35.054Z,1001.5
2016-11-25T02:30:55.623Z,1001.5
2016-11-25T02:31:16.166Z,1001.5
2016-11-25T02:31:36.698Z,1001.5
2016-11-25T02:31:57.271Z,1001.5
2016-11-25T02:32:17.810Z,1001.5
2016-11-25T02:32:38.389Z,1001.5
2016-11-25T02:32:58.970Z,1001.5
2016-11-25T02:33:19.520Z,1001.5
2016-11-25T02:33:40.079Z,1001.5
2016-11-25T02:34:00.616Z,1001.5
2016-11-25T02:34:21.196Z,1001.5
2016-11-25T02:34:41.737Z,1001.5
2016-11-25T02:35:02.332Z,1001.5
2016-11-25T02:35:22.914Z,1001.5
2016-11-25T02:35:43.468Z,1001.5
2016-11-25T02:36:03.999Z,1001.5
2016-11-25T02:36:24.553Z,1001.5
2016-11-25T02:36:45.141Z,1001.5
2016-11-25T02:37:05.702Z,1001.5
2016-11-25T02:37:26.239Z,1001.5
2016-11-25T02:37:46.791Z,1001.5
2016-11-25T02:38:07.336Z,1001.5
2016-11-25T02:38:27.888Z,1001.5
2016-11-25T02:38:48.467Z,1001.5
2016-11-25T02:39:09.051Z,1001.6
2016-11-25T02:39:29.596Z,1001.5
2016-11-25T02:39:50.152Z,1001.5
2016-11-25T02:40:10.695Z,1001.5
2016-11-25T02:40:31.254Z,1001.5
2016-11-25T02:40:51.806Z,1001.5
2016-11-25T02:41:12.397Z,1001.5
2016-11-25T02:48:27.013Z,1001.7
2016-11-25T02:48:47.587Z,1001.8
2016-11-25T02:49:08.162Z,1001.8
2016-11-25T02:49:28.725Z,1001.8
2016-11-25T02:49:49.281Z,1001.8
2016-11-25T02:50:09.838Z,1001.8
2016-11-25T02:50:30.379Z,1001.8
2016-11-25T02:50:50.922Z,1001.8
2016-11-25T02:51:11.449Z,1001.8
2016-11-25T02:51:32.006Z,1001.8
2016-11-25T02:51:52.572Z,1001.8
2016-11-25T02:52:13.119Z,1001.8
2016-11-25T02:52:33.664Z,1001.8
2016-11-25T02:52:54.217Z,1001.8
2016-11-25T02:53:14.777Z,1001.8
2016-11-25T02:53:35.335Z,1001.8
2016-11-25T02:53:55.873Z,1001.9
2016-11-25T02:54:16.429Z,1001.9
2016-11-25T02:54:36.971Z,1001.9
2016-11-25T02:54:57.564Z,1001.8
2016-11-25T02:55:18.124Z,1001.9
2016-11-25T02:55:38.659Z,1001.9
2016-11-25T02:55:59.235Z,1001.9
2016-11-25T02:56:19.793Z,1001.9
2016-11-25T02:56:40.386Z,1001.9
2016-11-25T02:57:01.022Z,1001.8
2016-11-25T02:57:21.581Z,1001.9
2016-11-25T02:57:42.133Z,1001.9
2016-11-25T02:58:02.670Z,1001.9
2016-11-25T02:58:23.215Z,1001.9
2016-11-25T02:58:43.755Z,1001.9
2016-11-25T02:59:04.295Z,1001.9
2016-11-25T02:59:24.846Z,1001.9
2016-11-25T02:59:45.385Z,1002
2016-11-25T03:00:05.915Z,1001.9
2016-11-25T03:00:26.460Z,1002
2016-11-25T03:00:47.003Z,1002
2016-11-25T03:01:07.594Z,1002
2016-11-25T03:01:28.174Z,1002
2016-11-25T03:01:48.712Z,1002
2016-11-25T03:02:09.254Z,1002
2016-11-25T03:02:29.813Z,1002
2016-11-25T03:02:50.377Z,1002
2016-11-25T03:03:10.947Z,1002
2016-11-25T03:03:31.500Z,1002
2016-11-25T03:03:52.036Z,1002
2016-11-25T03:04:12.608Z,1002
2016-11-25T03:04:33.162Z,1002
2016-11-25T03:04:53.692Z,1002
2016-11-25T03:05:14.244Z,1002
2016-11-25T03:05:34.789Z,1002
2016-11-25T03:05:55.377Z,1002
2016-11-25T03:06:15.926Z,1002.1
2016-11-25T03:06:36.485Z,1002
2016-11-25T03:06:57.025Z,1002
2016-11-25T03:07:17.608Z,1002.1
2016-11-25T03:07:38.197Z,1002
2016-11-25T03:07:58.757Z,1002.1
2016-11-25T03:08:19.341Z,1002.1
2016-11-25T03:08:39.899Z,1002.1
2016-11-25T03:09:00.447Z,1002.1
2016-11-25T03:09:21.034Z,1002.1
2016-11-25T03:09:41.588Z,1002.1
2016-11-25T03:10:02.128Z,1002.1
2016-11-25T03:10:22.666Z,1002.1
2016-11-25T03:10:43.219Z,1002.1
2016-11-25T03:11:03.763Z,1002.1
2016-11-25T03:11:24.300Z,1002.1
2016-11-25T03:11:44.856Z,1002.1
2016-11-25T03:12:05.392Z,1002.1
2016-11-25T03:12:26.025Z,1002.1
2016-11-25T03:12:46.572Z,1002.1
2016-11-25T03:13:07.102Z,1002.1
2016-11-25T03:13:27.660Z,1002.1
2016-11-25T03:13:48.207Z,1002.1
2016-11-25T03:14:08.772Z,1002.2
2016-11-25T03:14:29.307Z,1002.2
2016-11-25T03:14:49.867Z,1002.2
2016-11-25T03:15:10.415Z,1002.2
2016-11-25T03:15:31.016Z,1002.2
2016-11-25T03:15:51.553Z,1002.2
2016-11-25T03:16:12.129Z,1002.2
2016-11-25T03:16:32.704Z,1002.2
2016-11-25T03:16:53.249Z,1002.2
2016-11-25T03:17:13.785Z,1002.2
2016-11-25T03:17:34.338Z,1002.2
2016-11-25T03:17:54.907Z,1002.2
2016-11-25T03:18:15.463Z,1002.2
2016-11-25T03:18:35.987Z,1002.2
2016-11-25T03:18:56.544Z,1002.2
2016-11-25T03:19:17.067Z,1002.2
2016-11-25T03:19:37.596Z,1002.3
2016-11-25T03:19:58.179Z,1002.3
2016-11-25T03:20:18.758Z,1002.2
2016-11-25T03:20:39.320Z,1002.3
2016-11-25T03:20:59.874Z,1002.2
2016-11-25T03:21:20.425Z,1002.3
2016-11-25T03:21:41.014Z,1002.2
2016-11-25T03:22:01.600Z,1002.3
2016-11-25T03:22:22.132Z,1002.3
2016-11-25T03:22:42.687Z,1002.2
2016-11-25T03:23:03.264Z,1002.2
2016-11-25T03:23:23.857Z,1002.2
2016-11-25T03:23:44.412Z,1002.2
2016-11-25T03:24:04.998Z,1002.2
2016-11-25T03:24:25.534Z,1002.3
2016-11-25T03:24:46.082Z,1002.2
2016-11-25T03:25:06.640Z,1002.2
2016-11-25T03:25:27.223Z,1002.2
2016-11-25T03:25:47.791Z,1002.2
2016-11-25T03:26:08.329Z,1002.2
2016-11-25T03:26:28.876Z,1002.2
2016-11-25T03:26:49.416Z,1002.2
2016-11-25T03:27:10.006Z,1002.2
2016-11-25T03:27:30.563Z,1002.2
2016-11-25T03:27:51.103Z,1002.2
2016-11-25T03:28:11.667Z,1002.2
2016-11-25T03:28:32.211Z,1002.2
2016-11-25T03:28:52.757Z,1002.2
2016-11-25T03:29:13.308Z,1002.2
2016-11-25T03:29:33.922Z,1002.2
2016-11-25T03:29:54.486Z,1002.2
2016-11-25T03:30:15.043Z,1002.2
2016-11-25T03:30:35.608Z,1002.2
2016-11-25T03:30:56.153Z,1002.2
2016-11-25T03:31:16.736Z,1002.2
2016-11-25T03:31:37.282Z,1002.2
2016-11-25T03:31:57.833Z,1002.2
2016-11-25T03:32:18.414Z,1002.2
2016-11-25T03:32:38.990Z,1002.2
2016-11-25T03:32:59.531Z,1002.2
2016-11-25T03:33:20.072Z,1002.2
2016-11-25T03:33:40.607Z,1002.2
2016-11-25T03:34:01.134Z,1002.2
2016-11-25T03:34:21.733Z,1002.2
2016-11-25T03:34:42.270Z,1002.2
2016-11-25T03:35:02.833Z,1002.2
2016-11-25T03:35:23.379Z,1002.2
2016-11-25T03:35:43.913Z,1002.2
2016-11-25T03:36:04.464Z,1002.2
2016-11-25T03:36:25.005Z,1002.2
2016-11-25T03:36:45.568Z,1002.2
2016-11-25T03:37:06.116Z,1002.2
2016-11-25T03:37:26.656Z,1002.1
2016-11-25T03:37:47.225Z,1002.1
2016-11-25T03:38:07.782Z,1002.1
2016-11-25T03:38:28.330Z,1002.1
2016-11-25T03:38:48.887Z,1002.1
2016-11-25T03:39:09.454Z,1002.1
2016-11-25T03:39:30.013Z,1002.1
2016-11-25T03:39:50.581Z,1002.1
2016-11-25T03:40:11.121Z,1002.1
2016-11-25T03:40:31.675Z,1002.1
2016-11-25T03:40:52.234Z,1002
2016-11-25T03:41:12.773Z,1002
2016-11-25T03:41:33.322Z,1002
2016-11-25T03:41:53.881Z,1002
2016-11-25T03:42:14.438Z,1002
2016-11-25T03:42:34.990Z,1001.9
2016-11-25T03:42:55.533Z,1001.9
2016-11-25T03:43:16.116Z,1001.9
2016-11-25T03:43:36.666Z,1001.9
2016-11-25T03:43:57.220Z,1001.8
2016-11-25T03:44:17.778Z,1001.8
2016-11-25T03:44:38.342Z,1001.9
2016-11-25T03:44:58.885Z,1001.9
2016-11-25T03:45:19.435Z,1001.8
2016-11-25T03:45:39.974Z,1001.8
2016-11-25T03:46:00.515Z,1001.9
2016-11-25T03:46:21.109Z,1001.8
2016-11-25T03:46:41.673Z,1001.8
2016-11-25T03:47:02.219Z,1001.9
2016-11-25T03:47:22.777Z,1001.9
2016-11-25T03:47:43.427Z,1001.8
2016-11-25T03:48:03.962Z,1001.9
2016-11-25T03:48:24.513Z,1001.9
2016-11-25T03:48:45.087Z,1001.9
2016-11-25T03:49:05.629Z,1001.9
2016-11-25T03:49:26.171Z,1001.9
2016-11-25T03:49:46.727Z,1001.9
2016-11-25T03:50:07.272Z,1001.9
2016-11-25T03:50:27.810Z,1001.9
2016-11-25T03:50:48.400Z,1001.9
2016-11-25T03:51:08.936Z,1001.9
2016-11-25T03:51:29.494Z,1001.9
2016-11-25T03:51:50.044Z,1001.8
2016-11-25T03:52:10.588Z,1001.8
2016-11-25T03:52:31.175Z,1001.8
2016-11-25T03:52:51.759Z,1001.8
2016-11-25T03:53:12.338Z,1001.7
2016-11-25T03:53:32.889Z,1001.8
2016-11-25T03:53:53.450Z,1001.8
2016-11-25T03:54:14.012Z,1001.8
2016-11-25T03:54:34.566Z,1001.7
2016-11-25T03:54:55.115Z,1001.7
2016-11-25T03:55:15.659Z,1001.7
2016-11-25T03:55:36.213Z,1001.7
2016-11-25T03:55:56.753Z,1001.7
2016-11-25T03:56:17.342Z,1001.6
2016-11-25T03:56:37.887Z,1001.7
2016-11-25T03:56:58.436Z,1001.6
2016-11-25T03:57:18.984Z,1001.6
2016-11-25T03:57:39.531Z,1001.6
2016-11-25T03:58:00.075Z,1001.6
2016-11-25T03:58:20.621Z,1001.6
2016-11-25T03:58:41.188Z,1001.6
2016-11-25T03:59:01.763Z,1001.6
2016-11-25T03:59:22.383Z,1001.6
2016-11-25T03:59:42.937Z,1001.7
2016-11-25T04:00:03.486Z,1001.6
2016-11-25T04:00:24.062Z,1001.7
2016-11-25T04:00:44.634Z,1001.7
2016-11-25T04:01:05.194Z,1001.6
2016-11-25T04:01:25.733Z,1001.7
2016-11-25T04:01:46.309Z,1001.7
2016-11-25T04:02:06.985Z,1001.7
2016-11-25T04:02:27.533Z,1001.6
2016-11-25T04:02:48.078Z,1001.7
2016-11-25T04:03:08.637Z,1001.7
2016-11-25T04:03:29.187Z,1001.6
2016-11-25T04:03:49.731Z,1001.6
2016-11-25T04:04:10.269Z,1001.6
2016-11-25T04:04:30.817Z,1001.6
2016-11-25T04:04:51.414Z,1001.6
2016-11-25T04:05:11.956Z,1001.5
2016-11-25T04:05:32.509Z,1001.5
2016-11-25T04:05:53.061Z,1001.5
2016-11-25T04:06:13.587Z,1001.5
2016-11-25T04:06:34.147Z,1001.5
2016-11-25T04:06:54.741Z,1001.5
2016-11-25T04:07:15.296Z,1001.5
2016-11-25T04:07:35.867Z,1001.4
2016-11-25T04:07:56.432Z,1001.4
2016-11-25T04:08:16.994Z,1001.4
2016-11-25T04:08:37.545Z,1001.4
2016-11-25T04:08:58.118Z,1001.4
2016-11-25T04:09:18.676Z,1001.4
2016-11-25T04:09:39.266Z,1001.4
2016-11-25T04:09:59.815Z,1001.4
2016-11-25T04:10:20.384Z,1001.4
2016-11-25T04:10:40.941Z,1001.4
2016-11-25T04:11:01.511Z,1001.4
2016-11-25T04:11:22.074Z,1001.4
2016-11-25T04:11:44.078Z,1001.4
2016-11-25T04:12:06.972Z,1001.4
2016-11-25T04:12:27.570Z,1001.4
2016-11-25T04:12:48.195Z,1001.5
2016-11-25T04:13:10.457Z,1001.5
2016-11-25T04:13:52.670Z,1001.5
2016-11-25T04:14:45.120Z,1001.5
2016-11-25T04:15:28.281Z,1001.5
2016-11-25T04:16:14.507Z,1001.5
2016-11-25T04:17:01.584Z,1001.5
2016-11-25T04:17:41.359Z,1001.5
2016-11-25T04:18:17.794Z,1001.5
2016-11-25T04:19:05.480Z,1001.6
2016-11-25T04:20:00.881Z,1001.6
2016-11-25T04:20:53.623Z,1001.7
2016-11-25T04:21:40.949Z,1001.8
2016-11-25T04:22:33.651Z,1001.7
2016-11-25T04:23:22.572Z,1001.7
2016-11-25T04:24:15.542Z,1001.6
2016-11-25T04:25:09.238Z,1001.6
2016-11-25T04:25:53.356Z,1001.6
2016-11-25T04:26:13.922Z,1001.5
2016-11-25T04:26:34.607Z,1001.6
2016-11-25T04:26:55.149Z,1001.5
2016-11-25T04:27:15.719Z,1001.6
2016-11-25T04:27:36.263Z,1001.6
2016-11-25T04:27:56.801Z,1001.6
2016-11-25T04:28:17.363Z,1001.6
2016-11-25T04:28:37.904Z,1001.6
2016-11-25T04:28:58.434Z,1001.6
2016-11-25T04:29:19.746Z,1001.6
2016-11-25T04:29:40.419Z,1001.6
2016-11-25T04:30:00.960Z,1001.6
2016-11-25T04:30:21.514Z,1001.6
2016-11-25T04:30:42.069Z,1001.6
2016-11-25T04:31:02.596Z,1001.6
2016-11-25T04:31:23.140Z,1001.6
2016-11-25T04:31:43.674Z,1001.6
2016-11-25T04:32:04.216Z,1001.6
2016-11-25T04:32:24.753Z,1001.6
2016-11-25T04:32:45.309Z,1001.6
2016-11-25T04:33:06.155Z,1001.6
2016-11-25T04:33:27.096Z,1001.6
2016-11-25T04:33:47.695Z,1001.6
2016-11-25T04:34:08.222Z,1001.6
2016-11-25T04:34:28.909Z,1001.6
2016-11-25T04:34:49.468Z,1001.6